sensor_id;sensor_type;location;lat;lon;timestamp;P1;durP1;ratioP1;P2;durP2;ratioP2
17052;SDS011;8643;48.824;11.422;2023-02-28T00:01:54;5.87;;;2.60;;
17052;SDS011;8643;48.824;11.422;2023-02-28T00:04:24;5.67;;;3.17;;
17052;SDS011;8643;48.824;11.422;2023-02-28T00:06:53;5.17;;;2.80;;
17052;SDS011;8643;48.824;11.422;2023-02-28T00:09:21;7.93;;;3.30;;
17052;SDS011;8643;48.824;11.422;2023-02-28T00:11:50;5.13;;;2.80;;
17052;SDS011;8643;48.824;11.422;2023-02-28T00:14:18;6.23;;;3.00;;
17052;SDS011;8643;48.824;11.422;2023-02-28T00:16:46;7.20;;;3.03;;
17052;SDS011;8643;48.824;11.422;2023-02-28T00:19:15;7.37;;;3.03;;
17052;SDS011;8643;48.824;11.422;2023-02-28T00:21:45;8.97;;;2.97;;
17052;SDS011;8643;48.824;11.422;2023-02-28T00:24:14;5.23;;;2.80;;
17052;SDS011;8643;48.824;11.422;2023-02-28T00:26:42;6.20;;;2.83;;
17052;SDS011;8643;48.824;11.422;2023-02-28T00:29:10;5.03;;;2.90;;
17052;SDS011;8643;48.824;11.422;2023-02-28T00:31:39;5.23;;;2.60;;
17052;SDS011;8643;48.824;11.422;2023-02-28T00:34:07;7.33;;;3.20;;
17052;SDS011;8643;48.824;11.422;2023-02-28T00:36:36;7.40;;;2.90;;
17052;SDS011;8643;48.824;11.422;2023-02-28T00:39:06;7.07;;;2.90;;
17052;SDS011;8643;48.824;11.422;2023-02-28T00:41:34;7.77;;;3.03;;
17052;SDS011;8643;48.824;11.422;2023-02-28T00:44:06;5.17;;;2.77;;
17052;SDS011;8643;48.824;11.422;2023-02-28T00:46:35;5.57;;;3.10;;
17052;SDS011;8643;48.824;11.422;2023-02-28T00:49:03;6.70;;;3.00;;
17052;SDS011;8643;48.824;11.422;2023-02-28T00:51:31;6.60;;;3.00;;
17052;SDS011;8643;48.824;11.422;2023-02-28T00:54:00;8.23;;;3.23;;
17052;SDS011;8643;48.824;11.422;2023-02-28T00:56:30;5.57;;;2.93;;
17052;SDS011;8643;48.824;11.422;2023-02-28T00:58:59;6.33;;;3.27;;
17052;SDS011;8643;48.824;11.422;2023-02-28T01:01:27;4.77;;;2.63;;
17052;SDS011;8643;48.824;11.422;2023-02-28T01:03:57;5.23;;;2.47;;
17052;SDS011;8643;48.824;11.422;2023-02-28T01:06:26;6.60;;;3.20;;
17052;SDS011;8643;48.824;11.422;2023-02-28T01:08:54;6.60;;;3.13;;
17052;SDS011;8643;48.824;11.422;2023-02-28T01:11:22;7.83;;;2.93;;
17052;SDS011;8643;48.824;11.422;2023-02-28T01:13:53;5.80;;;2.77;;
17052;SDS011;8643;48.824;11.422;2023-02-28T01:16:21;4.60;;;2.97;;
17052;SDS011;8643;48.824;11.422;2023-02-28T01:18:50;6.03;;;3.50;;
17052;SDS011;8643;48.824;11.422;2023-02-28T01:21:19;6.13;;;3.10;;
17052;SDS011;8643;48.824;11.422;2023-02-28T01:23:49;5.57;;;2.90;;
17052;SDS011;8643;48.824;11.422;2023-02-28T01:26:19;6.93;;;3.07;;
17052;SDS011;8643;48.824;11.422;2023-02-28T01:28:50;6.53;;;3.23;;
17052;SDS011;8643;48.824;11.422;2023-02-28T01:31:21;7.17;;;3.23;;
17052;SDS011;8643;48.824;11.422;2023-02-28T01:33:50;5.67;;;3.03;;
17052;SDS011;8643;48.824;11.422;2023-02-28T01:36:20;6.80;;;3.13;;
17052;SDS011;8643;48.824;11.422;2023-02-28T01:38:51;5.47;;;2.80;;
17052;SDS011;8643;48.824;11.422;2023-02-28T01:41:21;6.27;;;3.30;;
17052;SDS011;8643;48.824;11.422;2023-02-28T01:43:54;7.27;;;3.20;;
17052;SDS011;8643;48.824;11.422;2023-02-28T01:46:34;7.13;;;3.40;;
17052;SDS011;8643;48.824;11.422;2023-02-28T01:49:07;8.13;;;3.43;;
17052;SDS011;8643;48.824;11.422;2023-02-28T01:51:41;6.50;;;3.57;;
17052;SDS011;8643;48.824;11.422;2023-02-28T01:54:19;6.03;;;3.07;;
17052;SDS011;8643;48.824;11.422;2023-02-28T01:56:52;6.93;;;3.33;;
17052;SDS011;8643;48.824;11.422;2023-02-28T01:59:27;7.13;;;3.07;;
17052;SDS011;8643;48.824;11.422;2023-02-28T02:02:03;4.83;;;3.00;;
17052;SDS011;8643;48.824;11.422;2023-02-28T02:04:32;5.40;;;2.90;;
17052;SDS011;8643;48.824;11.422;2023-02-28T02:07:09;6.43;;;3.50;;
17052;SDS011;8643;48.824;11.422;2023-02-28T02:09:43;7.73;;;3.20;;
17052;SDS011;8643;48.824;11.422;2023-02-28T02:12:15;7.63;;;3.33;;
17052;SDS011;8643;48.824;11.422;2023-02-28T02:14:59;8.27;;;3.67;;
17052;SDS011;8643;48.824;11.422;2023-02-28T02:17:38;9.90;;;3.47;;
17052;SDS011;8643;48.824;11.422;2023-02-28T02:26:51;5.77;;;3.20;;
17052;SDS011;8643;48.824;11.422;2023-02-28T02:29:54;7.17;;;3.10;;
17052;SDS011;8643;48.824;11.422;2023-02-28T02:36:21;6.87;;;3.23;;
17052;SDS011;8643;48.824;11.422;2023-02-28T02:38:55;6.23;;;3.43;;
17052;SDS011;8643;48.824;11.422;2023-02-28T02:41:33;5.10;;;2.80;;
17052;SDS011;8643;48.824;11.422;2023-02-28T02:44:10;6.70;;;3.43;;
17052;SDS011;8643;48.824;11.422;2023-02-28T02:46:48;7.73;;;3.40;;
17052;SDS011;8643;48.824;11.422;2023-02-28T02:49:28;6.20;;;3.50;;
17052;SDS011;8643;48.824;11.422;2023-02-28T02:52:03;9.00;;;3.73;;
17052;SDS011;8643;48.824;11.422;2023-02-28T02:54:37;6.83;;;3.37;;
17052;SDS011;8643;48.824;11.422;2023-02-28T02:57:12;8.27;;;3.47;;
17052;SDS011;8643;48.824;11.422;2023-02-28T02:59:48;9.73;;;3.23;;
17052;SDS011;8643;48.824;11.422;2023-02-28T03:02:21;6.93;;;3.27;;
17052;SDS011;8643;48.824;11.422;2023-02-28T03:04:53;6.90;;;3.33;;
17052;SDS011;8643;48.824;11.422;2023-02-28T03:07:29;9.33;;;3.80;;
17052;SDS011;8643;48.824;11.422;2023-02-28T03:09:58;6.23;;;3.33;;
17052;SDS011;8643;48.824;11.422;2023-02-28T03:12:28;7.00;;;3.50;;
17052;SDS011;8643;48.824;11.422;2023-02-28T03:15:14;7.07;;;3.73;;
17052;SDS011;8643;48.824;11.422;2023-02-28T03:17:55;6.97;;;3.13;;
17052;SDS011;8643;48.824;11.422;2023-02-28T03:20:37;7.50;;;3.57;;
17052;SDS011;8643;48.824;11.422;2023-02-28T03:23:22;9.23;;;3.50;;
17052;SDS011;8643;48.824;11.422;2023-02-28T03:26:02;8.57;;;3.87;;
17052;SDS011;8643;48.824;11.422;2023-02-28T03:28:36;9.40;;;4.10;;
17052;SDS011;8643;48.824;11.422;2023-02-28T03:31:17;8.03;;;4.13;;
17052;SDS011;8643;48.824;11.422;2023-02-28T03:33:55;9.23;;;4.43;;
17052;SDS011;8643;48.824;11.422;2023-02-28T03:36:32;8.10;;;3.50;;
17052;SDS011;8643;48.824;11.422;2023-02-28T03:39:11;7.00;;;3.60;;
17052;SDS011;8643;48.824;11.422;2023-02-28T03:41:47;7.80;;;4.07;;
17052;SDS011;8643;48.824;11.422;2023-02-28T03:44:25;10.40;;;4.30;;
17052;SDS011;8643;48.824;11.422;2023-02-28T03:47:03;9.17;;;4.07;;
17052;SDS011;8643;48.824;11.422;2023-02-28T03:49:39;8.80;;;3.67;;
17052;SDS011;8643;48.824;11.422;2023-02-28T03:52:16;6.70;;;3.60;;
17052;SDS011;8643;48.824;11.422;2023-02-28T03:54:52;9.93;;;4.10;;
17052;SDS011;8643;48.824;11.422;2023-02-28T03:57:27;10.70;;;4.00;;
17052;SDS011;8643;48.824;11.422;2023-02-28T04:00:06;6.43;;;3.53;;
17052;SDS011;8643;48.824;11.422;2023-02-28T04:02:40;8.30;;;3.80;;
17052;SDS011;8643;48.824;11.422;2023-02-28T04:05:09;8.73;;;3.90;;
17052;SDS011;8643;48.824;11.422;2023-02-28T04:07:38;7.77;;;4.00;;
17052;SDS011;8643;48.824;11.422;2023-02-28T04:10:08;6.40;;;3.33;;
17052;SDS011;8643;48.824;11.422;2023-02-28T04:12:39;7.90;;;3.67;;
17052;SDS011;8643;48.824;11.422;2023-02-28T04:15:08;11.53;;;4.30;;
17052;SDS011;8643;48.824;11.422;2023-02-28T04:17:37;7.57;;;3.53;;
17052;SDS011;8643;48.824;11.422;2023-02-28T04:20:06;9.40;;;4.30;;
17052;SDS011;8643;48.824;11.422;2023-02-28T04:22:36;9.07;;;4.43;;
17052;SDS011;8643;48.824;11.422;2023-02-28T04:25:05;11.00;;;4.20;;
17052;SDS011;8643;48.824;11.422;2023-02-28T04:27:38;8.13;;;3.90;;
17052;SDS011;8643;48.824;11.422;2023-02-28T04:30:07;10.63;;;4.83;;
17052;SDS011;8643;48.824;11.422;2023-02-28T04:32:37;10.13;;;4.63;;
17052;SDS011;8643;48.824;11.422;2023-02-28T04:35:06;12.17;;;4.03;;
17052;SDS011;8643;48.824;11.422;2023-02-28T04:37:37;8.83;;;4.43;;
17052;SDS011;8643;48.824;11.422;2023-02-28T04:40:08;10.10;;;4.17;;
17052;SDS011;8643;48.824;11.422;2023-02-28T04:42:38;10.20;;;4.37;;
17052;SDS011;8643;48.824;11.422;2023-02-28T04:45:07;9.10;;;4.53;;
17052;SDS011;8643;48.824;11.422;2023-02-28T04:47:37;11.70;;;4.33;;
17052;SDS011;8643;48.824;11.422;2023-02-28T04:50:06;9.47;;;4.57;;
17052;SDS011;8643;48.824;11.422;2023-02-28T04:52:36;10.73;;;4.33;;
17052;SDS011;8643;48.824;11.422;2023-02-28T04:55:05;11.47;;;5.00;;
17052;SDS011;8643;48.824;11.422;2023-02-28T04:57:35;11.27;;;4.70;;
17052;SDS011;8643;48.824;11.422;2023-02-28T05:00:05;9.47;;;4.60;;
17052;SDS011;8643;48.824;11.422;2023-02-28T05:02:37;10.73;;;4.53;;
17052;SDS011;8643;48.824;11.422;2023-02-28T05:05:06;12.33;;;5.20;;
17052;SDS011;8643;48.824;11.422;2023-02-28T05:07:35;12.30;;;4.77;;
17052;SDS011;8643;48.824;11.422;2023-02-28T05:10:03;10.70;;;4.53;;
17052;SDS011;8643;48.824;11.422;2023-02-28T05:12:34;13.10;;;5.37;;
17052;SDS011;8643;48.824;11.422;2023-02-28T05:15:04;12.93;;;5.27;;
17052;SDS011;8643;48.824;11.422;2023-02-28T05:17:34;12.23;;;5.37;;
17052;SDS011;8643;48.824;11.422;2023-02-28T05:20:02;13.17;;;5.17;;
17052;SDS011;8643;48.824;11.422;2023-02-28T05:22:41;12.37;;;5.20;;
17052;SDS011;8643;48.824;11.422;2023-02-28T05:25:11;12.70;;;5.57;;
17052;SDS011;8643;48.824;11.422;2023-02-28T05:27:45;13.07;;;5.20;;
17052;SDS011;8643;48.824;11.422;2023-02-28T05:30:14;13.13;;;5.83;;
17052;SDS011;8643;48.824;11.422;2023-02-28T05:32:43;12.67;;;5.33;;
17052;SDS011;8643;48.824;11.422;2023-02-28T05:35:17;12.70;;;5.63;;
17052;SDS011;8643;48.824;11.422;2023-02-28T05:37:45;14.13;;;5.67;;
17052;SDS011;8643;48.824;11.422;2023-02-28T05:40:14;11.97;;;5.47;;
17052;SDS011;8643;48.824;11.422;2023-02-28T05:42:42;13.13;;;5.33;;
17052;SDS011;8643;48.824;11.422;2023-02-28T05:45:12;10.97;;;4.97;;
17052;SDS011;8643;48.824;11.422;2023-02-28T05:47:41;12.67;;;5.63;;
17052;SDS011;8643;48.824;11.422;2023-02-28T05:50:09;10.27;;;4.53;;
17052;SDS011;8643;48.824;11.422;2023-02-28T05:52:38;11.17;;;5.50;;
17052;SDS011;8643;48.824;11.422;2023-02-28T05:55:07;12.63;;;5.30;;
17052;SDS011;8643;48.824;11.422;2023-02-28T05:57:36;13.70;;;6.07;;
17052;SDS011;8643;48.824;11.422;2023-02-28T06:00:05;14.17;;;5.67;;
17052;SDS011;8643;48.824;11.422;2023-02-28T06:02:40;13.10;;;5.70;;
17052;SDS011;8643;48.824;11.422;2023-02-28T06:05:09;9.80;;;5.13;;
17052;SDS011;8643;48.824;11.422;2023-02-28T06:07:42;13.03;;;5.70;;
17052;SDS011;8643;48.824;11.422;2023-02-28T06:10:11;14.33;;;5.63;;
17052;SDS011;8643;48.824;11.422;2023-02-28T06:12:40;10.03;;;5.03;;
17052;SDS011;8643;48.824;11.422;2023-02-28T06:15:11;13.43;;;6.30;;
17052;SDS011;8643;48.824;11.422;2023-02-28T06:17:43;14.00;;;5.93;;
17052;SDS011;8643;48.824;11.422;2023-02-28T06:20:12;14.20;;;5.83;;
17052;SDS011;8643;48.824;11.422;2023-02-28T06:22:41;13.03;;;5.93;;
17052;SDS011;8643;48.824;11.422;2023-02-28T06:25:09;13.40;;;5.93;;
17052;SDS011;8643;48.824;11.422;2023-02-28T06:27:38;11.93;;;5.33;;
17052;SDS011;8643;48.824;11.422;2023-02-28T06:30:07;13.17;;;6.23;;
17052;SDS011;8643;48.824;11.422;2023-02-28T06:32:37;11.90;;;5.67;;
17052;SDS011;8643;48.824;11.422;2023-02-28T06:35:07;11.80;;;5.97;;
17052;SDS011;8643;48.824;11.422;2023-02-28T06:37:36;14.17;;;6.37;;
17052;SDS011;8643;48.824;11.422;2023-02-28T06:40:07;11.47;;;6.00;;
17052;SDS011;8643;48.824;11.422;2023-02-28T06:42:39;15.73;;;6.27;;
17052;SDS011;8643;48.824;11.422;2023-02-28T06:45:08;12.57;;;5.83;;
17052;SDS011;8643;48.824;11.422;2023-02-28T06:47:38;13.00;;;5.80;;
17052;SDS011;8643;48.824;11.422;2023-02-28T06:50:11;17.63;;;6.10;;
17052;SDS011;8643;48.824;11.422;2023-02-28T06:52:40;14.97;;;6.33;;
17052;SDS011;8643;48.824;11.422;2023-02-28T06:55:08;12.63;;;6.53;;
17052;SDS011;8643;48.824;11.422;2023-02-28T06:57:37;11.10;;;4.47;;
17052;SDS011;8643;48.824;11.422;2023-02-28T07:00:07;13.03;;;5.73;;
17052;SDS011;8643;48.824;11.422;2023-02-28T07:02:37;13.77;;;6.23;;
17052;SDS011;8643;48.824;11.422;2023-02-28T07:05:06;15.37;;;6.50;;
17052;SDS011;8643;48.824;11.422;2023-02-28T07:07:36;14.37;;;6.67;;
17052;SDS011;8643;48.824;11.422;2023-02-28T07:10:09;13.80;;;6.07;;
17052;SDS011;8643;48.824;11.422;2023-02-28T07:12:39;14.47;;;6.30;;
17052;SDS011;8643;48.824;11.422;2023-02-28T07:15:10;13.03;;;6.43;;
17052;SDS011;8643;48.824;11.422;2023-02-28T07:17:38;13.50;;;6.40;;
17052;SDS011;8643;48.824;11.422;2023-02-28T07:20:07;13.37;;;6.30;;
17052;SDS011;8643;48.824;11.422;2023-02-28T07:22:38;9.40;;;5.17;;
17052;SDS011;8643;48.824;11.422;2023-02-28T07:25:07;12.90;;;5.93;;
17052;SDS011;8643;48.824;11.422;2023-02-28T07:27:36;12.00;;;6.20;;
17052;SDS011;8643;48.824;11.422;2023-02-28T07:30:07;11.10;;;5.90;;
17052;SDS011;8643;48.824;11.422;2023-02-28T07:32:37;16.77;;;6.80;;
17052;SDS011;8643;48.824;11.422;2023-02-28T07:35:06;14.20;;;6.63;;
17052;SDS011;8643;48.824;11.422;2023-02-28T07:37:35;14.07;;;6.33;;
17052;SDS011;8643;48.824;11.422;2023-02-28T07:40:06;12.03;;;6.13;;
17052;SDS011;8643;48.824;11.422;2023-02-28T07:42:39;14.33;;;6.33;;
17052;SDS011;8643;48.824;11.422;2023-02-28T07:45:09;12.90;;;6.53;;
17052;SDS011;8643;48.824;11.422;2023-02-28T07:47:38;15.40;;;6.03;;
17052;SDS011;8643;48.824;11.422;2023-02-28T07:50:08;13.27;;;5.63;;
17052;SDS011;8643;48.824;11.422;2023-02-28T07:52:40;12.23;;;6.13;;
17052;SDS011;8643;48.824;11.422;2023-02-28T07:55:09;13.07;;;6.37;;
17052;SDS011;8643;48.824;11.422;2023-02-28T07:57:38;12.00;;;6.03;;
17052;SDS011;8643;48.824;11.422;2023-02-28T08:00:08;9.77;;;5.67;;
17052;SDS011;8643;48.824;11.422;2023-02-28T08:02:40;9.70;;;5.73;;
17052;SDS011;8643;48.824;11.422;2023-02-28T08:05:08;9.57;;;5.40;;
17052;SDS011;8643;48.824;11.422;2023-02-28T08:07:37;13.00;;;5.97;;
17052;SDS011;8643;48.824;11.422;2023-02-28T08:10:07;12.07;;;6.20;;
17052;SDS011;8643;48.824;11.422;2023-02-28T08:12:38;9.87;;;5.60;;
17052;SDS011;8643;48.824;11.422;2023-02-28T08:15:06;11.83;;;6.20;;
17052;SDS011;8643;48.824;11.422;2023-02-28T08:17:36;10.37;;;5.60;;
17052;SDS011;8643;48.824;11.422;2023-02-28T08:20:05;9.77;;;5.37;;
17052;SDS011;8643;48.824;11.422;2023-02-28T08:22:36;10.37;;;5.23;;
17052;SDS011;8643;48.824;11.422;2023-02-28T08:25:07;10.00;;;5.40;;
17052;SDS011;8643;48.824;11.422;2023-02-28T08:27:36;10.47;;;6.10;;
17052;SDS011;8643;48.824;11.422;2023-02-28T08:30:05;10.80;;;5.30;;
17052;SDS011;8643;48.824;11.422;2023-02-28T08:32:36;11.30;;;5.60;;
17052;SDS011;8643;48.824;11.422;2023-02-28T08:35:06;12.57;;;5.97;;
17052;SDS011;8643;48.824;11.422;2023-02-28T08:37:36;10.10;;;6.17;;
17052;SDS011;8643;48.824;11.422;2023-02-28T08:40:07;11.27;;;5.80;;
17052;SDS011;8643;48.824;11.422;2023-02-28T08:42:37;9.47;;;5.23;;
17052;SDS011;8643;48.824;11.422;2023-02-28T08:45:06;9.27;;;5.37;;
17052;SDS011;8643;48.824;11.422;2023-02-28T08:47:35;10.50;;;5.80;;
17052;SDS011;8643;48.824;11.422;2023-02-28T08:50:03;9.50;;;5.70;;
17052;SDS011;8643;48.824;11.422;2023-02-28T08:52:33;9.10;;;5.67;;
17052;SDS011;8643;48.824;11.422;2023-02-28T08:55:07;9.80;;;5.60;;
17052;SDS011;8643;48.824;11.422;2023-02-28T08:57:36;12.33;;;5.90;;
17052;SDS011;8643;48.824;11.422;2023-02-28T09:00:05;10.43;;;5.63;;
17052;SDS011;8643;48.824;11.422;2023-02-28T09:02:36;10.13;;;5.87;;
17052;SDS011;8643;48.824;11.422;2023-02-28T09:05:06;8.90;;;5.70;;
17052;SDS011;8643;48.824;11.422;2023-02-28T09:07:36;10.20;;;5.57;;
17052;SDS011;8643;48.824;11.422;2023-02-28T09:10:04;11.87;;;5.43;;
17052;SDS011;8643;48.824;11.422;2023-02-28T09:12:35;9.67;;;5.30;;
17052;SDS011;8643;48.824;11.422;2023-02-28T09:15:04;10.27;;;5.53;;
17052;SDS011;8643;48.824;11.422;2023-02-28T09:17:34;12.37;;;6.47;;
17052;SDS011;8643;48.824;11.422;2023-02-28T09:20:03;8.47;;;5.17;;
17052;SDS011;8643;48.824;11.422;2023-02-28T09:22:33;10.67;;;5.83;;
17052;SDS011;8643;48.824;11.422;2023-02-28T09:25:01;9.57;;;5.40;;
17052;SDS011;8643;48.824;11.422;2023-02-28T09:27:31;8.80;;;5.43;;
17052;SDS011;8643;48.824;11.422;2023-02-28T09:30:00;9.53;;;5.77;;
17052;SDS011;8643;48.824;11.422;2023-02-28T09:32:29;11.77;;;6.23;;
17052;SDS011;8643;48.824;11.422;2023-02-28T09:34:57;8.80;;;5.87;;
17052;SDS011;8643;48.824;11.422;2023-02-28T09:37:25;11.30;;;6.60;;
17052;SDS011;8643;48.824;11.422;2023-02-28T09:39:57;9.83;;;5.57;;
17052;SDS011;8643;48.824;11.422;2023-02-28T09:42:28;10.37;;;5.90;;
17052;SDS011;8643;48.824;11.422;2023-02-28T09:45:02;10.37;;;6.50;;
17052;SDS011;8643;48.824;11.422;2023-02-28T09:47:50;11.87;;;6.07;;
17052;SDS011;8643;48.824;11.422;2023-02-28T09:50:28;9.03;;;5.60;;
17052;SDS011;8643;48.824;11.422;2023-02-28T09:53:02;11.80;;;5.97;;
17052;SDS011;8643;48.824;11.422;2023-02-28T09:55:39;11.20;;;5.93;;
17052;SDS011;8643;48.824;11.422;2023-02-28T09:58:18;11.63;;;5.80;;
17052;SDS011;8643;48.824;11.422;2023-02-28T10:00:57;12.27;;;6.27;;
17052;SDS011;8643;48.824;11.422;2023-02-28T10:03:35;9.10;;;5.83;;
17052;SDS011;8643;48.824;11.422;2023-02-28T10:06:09;11.00;;;6.07;;
17052;SDS011;8643;48.824;11.422;2023-02-28T10:08:45;11.27;;;6.40;;
17052;SDS011;8643;48.824;11.422;2023-02-28T10:11:23;11.30;;;6.70;;
17052;SDS011;8643;48.824;11.422;2023-02-28T10:13:58;13.93;;;6.77;;
17052;SDS011;8643;48.824;11.422;2023-02-28T10:16:34;11.57;;;6.63;;
17052;SDS011;8643;48.824;11.422;2023-02-28T10:19:13;12.13;;;6.70;;
17052;SDS011;8643;48.824;11.422;2023-02-28T10:21:50;11.70;;;6.90;;
17052;SDS011;8643;48.824;11.422;2023-02-28T10:24:27;11.30;;;6.67;;
17052;SDS011;8643;48.824;11.422;2023-02-28T10:27:05;11.50;;;6.90;;
17052;SDS011;8643;48.824;11.422;2023-02-28T10:29:45;11.13;;;5.87;;
17052;SDS011;8643;48.824;11.422;2023-02-28T10:32:18;10.33;;;6.10;;
17052;SDS011;8643;48.824;11.422;2023-02-28T10:34:52;10.60;;;6.70;;
17052;SDS011;8643;48.824;11.422;2023-02-28T10:37:27;13.07;;;6.67;;
17052;SDS011;8643;48.824;11.422;2023-02-28T10:39:56;12.10;;;6.53;;
17052;SDS011;8643;48.824;11.422;2023-02-28T10:42:25;11.43;;;6.43;;
17052;SDS011;8643;48.824;11.422;2023-02-28T10:45:09;10.70;;;6.50;;
17052;SDS011;8643;48.824;11.422;2023-02-28T10:47:48;11.83;;;6.27;;
17052;SDS011;8643;48.824;11.422;2023-02-28T10:53:30;10.73;;;6.60;;
17052;SDS011;8643;48.824;11.422;2023-02-28T10:56:23;10.30;;;6.23;;
17052;SDS011;8643;48.824;11.422;2023-02-28T10:58:54;11.27;;;7.00;;
17052;SDS011;8643;48.824;11.422;2023-02-28T11:01:39;10.10;;;6.43;;
17052;SDS011;8643;48.824;11.422;2023-02-28T11:04:16;10.27;;;6.50;;
17052;SDS011;8643;48.824;11.422;2023-02-28T11:06:48;13.97;;;7.13;;
17052;SDS011;8643;48.824;11.422;2023-02-28T11:09:27;11.97;;;6.50;;
17052;SDS011;8643;48.824;11.422;2023-02-28T11:12:01;10.77;;;6.87;;
17052;SDS011;8643;48.824;11.422;2023-02-28T11:14:34;12.53;;;6.60;;
17052;SDS011;8643;48.824;11.422;2023-02-28T11:17:19;11.10;;;7.03;;
17052;SDS011;8643;48.824;11.422;2023-02-28T11:19:52;12.27;;;7.00;;
17052;SDS011;8643;48.824;11.422;2023-02-28T11:22:25;13.30;;;7.10;;
17052;SDS011;8643;48.824;11.422;2023-02-28T11:25:01;11.43;;;7.10;;
17052;SDS011;8643;48.824;11.422;2023-02-28T11:30:31;12.43;;;6.97;;
17052;SDS011;8643;48.824;11.422;2023-02-28T11:33:19;9.93;;;6.67;;
17052;SDS011;8643;48.824;11.422;2023-02-28T11:35:55;13.13;;;7.27;;
17052;SDS011;8643;48.824;11.422;2023-02-28T11:38:28;11.30;;;7.43;;
17052;SDS011;8643;48.824;11.422;2023-02-28T11:41:05;12.83;;;7.50;;
17052;SDS011;8643;48.824;11.422;2023-02-28T11:44:08;11.03;;;6.80;;
17052;SDS011;8643;48.824;11.422;2023-02-28T11:46:56;10.70;;;6.93;;
17052;SDS011;8643;48.824;11.422;2023-02-28T11:49:34;10.20;;;6.83;;
17052;SDS011;8643;48.824;11.422;2023-02-28T11:52:20;10.17;;;6.83;;
17052;SDS011;8643;48.824;11.422;2023-02-28T11:55:05;14.57;;;7.43;;
17052;SDS011;8643;48.824;11.422;2023-02-28T11:57:49;13.17;;;7.30;;
17052;SDS011;8643;48.824;11.422;2023-02-28T12:01:02;12.20;;;7.47;;
17052;SDS011;8643;48.824;11.422;2023-02-28T12:03:54;12.50;;;7.37;;
17052;SDS011;8643;48.824;11.422;2023-02-28T12:06:40;12.53;;;7.57;;
17052;SDS011;8643;48.824;11.422;2023-02-28T12:09:23;12.03;;;6.97;;
17052;SDS011;8643;48.824;11.422;2023-02-28T12:12:18;11.33;;;7.00;;
17052;SDS011;8643;48.824;11.422;2023-02-28T12:15:06;11.10;;;7.63;;
17052;SDS011;8643;48.824;11.422;2023-02-28T12:17:59;12.13;;;7.57;;
17052;SDS011;8643;48.824;11.422;2023-02-28T12:20:45;11.47;;;7.40;;
17052;SDS011;8643;48.824;11.422;2023-02-28T12:23:25;11.97;;;7.37;;
17052;SDS011;8643;48.824;11.422;2023-02-28T12:26:22;13.67;;;8.10;;
17052;SDS011;8643;48.824;11.422;2023-02-28T12:29:05;11.20;;;7.30;;
17052;SDS011;8643;48.824;11.422;2023-02-28T12:31:46;12.87;;;7.73;;
17052;SDS011;8643;48.824;11.422;2023-02-28T12:34:21;11.43;;;7.50;;
17052;SDS011;8643;48.824;11.422;2023-02-28T12:37:00;13.27;;;7.10;;
17052;SDS011;8643;48.824;11.422;2023-02-28T12:39:40;12.07;;;7.23;;
17052;SDS011;8643;48.824;11.422;2023-02-28T12:42:17;12.50;;;7.50;;
17052;SDS011;8643;48.824;11.422;2023-02-28T12:44:56;12.63;;;7.67;;
17052;SDS011;8643;48.824;11.422;2023-02-28T12:47:29;12.33;;;7.43;;
17052;SDS011;8643;48.824;11.422;2023-02-28T12:49:59;13.30;;;7.50;;
17052;SDS011;8643;48.824;11.422;2023-02-28T12:52:35;12.93;;;6.80;;
17052;SDS011;8643;48.824;11.422;2023-02-28T12:55:17;12.20;;;7.53;;
17052;SDS011;8643;48.824;11.422;2023-02-28T12:57:58;13.90;;;7.43;;
17052;SDS011;8643;48.824;11.422;2023-02-28T13:00:37;13.60;;;7.93;;
17052;SDS011;8643;48.824;11.422;2023-02-28T13:04:04;11.93;;;7.53;;
17052;SDS011;8643;48.824;11.422;2023-02-28T13:06:58;11.90;;;7.57;;
17052;SDS011;8643;48.824;11.422;2023-02-28T13:09:48;11.83;;;7.80;;
17052;SDS011;8643;48.824;11.422;2023-02-28T13:12:23;13.37;;;7.93;;
17052;SDS011;8643;48.824;11.422;2023-02-28T13:15:00;11.63;;;7.50;;
17052;SDS011;8643;48.824;11.422;2023-02-28T13:17:38;12.63;;;7.93;;
17052;SDS011;8643;48.824;11.422;2023-02-28T13:20:14;11.93;;;7.83;;
17052;SDS011;8643;48.824;11.422;2023-02-28T13:22:47;12.40;;;7.40;;
17052;SDS011;8643;48.824;11.422;2023-02-28T13:35:14;11.83;;;7.20;;
17052;SDS011;8643;48.824;11.422;2023-02-28T13:38:18;10.43;;;6.83;;
17052;SDS011;8643;48.824;11.422;2023-02-28T13:44:13;10.50;;;6.80;;
17052;SDS011;8643;48.824;11.422;2023-02-28T13:49:52;11.00;;;6.70;;
17052;SDS011;8643;48.824;11.422;2023-02-28T13:52:21;10.73;;;7.03;;
17052;SDS011;8643;48.824;11.422;2023-02-28T13:58:07;12.00;;;7.37;;
17052;SDS011;8643;48.824;11.422;2023-02-28T14:01:02;14.07;;;7.73;;
17052;SDS011;8643;48.824;11.422;2023-02-28T14:03:57;14.53;;;6.90;;
17052;SDS011;8643;48.824;11.422;2023-02-28T14:06:48;11.70;;;7.37;;
17052;SDS011;8643;48.824;11.422;2023-02-28T14:09:21;12.07;;;7.80;;
17052;SDS011;8643;48.824;11.422;2023-02-28T14:11:54;12.50;;;7.10;;
17052;SDS011;8643;48.824;11.422;2023-02-28T14:17:24;12.00;;;7.30;;
17052;SDS011;8643;48.824;11.422;2023-02-28T14:19:53;11.63;;;7.30;;
17052;SDS011;8643;48.824;11.422;2023-02-28T14:22:36;15.23;;;7.33;;
17052;SDS011;8643;48.824;11.422;2023-02-28T14:25:22;11.30;;;7.70;;
17052;SDS011;8643;48.824;11.422;2023-02-28T14:28:04;12.87;;;7.13;;
17052;SDS011;8643;48.824;11.422;2023-02-28T14:30:52;11.90;;;7.50;;
17052;SDS011;8643;48.824;11.422;2023-02-28T14:33:35;15.97;;;8.37;;
17052;SDS011;8643;48.824;11.422;2023-02-28T14:36:24;12.37;;;8.33;;
17052;SDS011;8643;48.824;11.422;2023-02-28T14:39:04;13.93;;;8.13;;
17052;SDS011;8643;48.824;11.422;2023-02-28T14:41:39;12.67;;;7.57;;
17052;SDS011;8643;48.824;11.422;2023-02-28T14:44:13;12.93;;;8.27;;
17052;SDS011;8643;48.824;11.422;2023-02-28T14:46:45;14.80;;;8.10;;
17052;SDS011;8643;48.824;11.422;2023-02-28T14:49:18;13.37;;;7.80;;
17052;SDS011;8643;48.824;11.422;2023-02-28T14:52:00;14.73;;;8.10;;
17052;SDS011;8643;48.824;11.422;2023-02-28T14:54:37;13.43;;;7.93;;
17052;SDS011;8643;48.824;11.422;2023-02-28T14:57:18;13.17;;;7.77;;
17052;SDS011;8643;48.824;11.422;2023-02-28T15:00:01;12.33;;;7.87;;
17052;SDS011;8643;48.824;11.422;2023-02-28T15:02:39;13.77;;;8.30;;
17052;SDS011;8643;48.824;11.422;2023-02-28T15:05:16;13.33;;;8.13;;
17052;SDS011;8643;48.824;11.422;2023-02-28T15:08:03;14.43;;;8.13;;
17052;SDS011;8643;48.824;11.422;2023-02-28T15:10:40;14.57;;;8.30;;
17052;SDS011;8643;48.824;11.422;2023-02-28T15:13:13;13.73;;;8.37;;
17052;SDS011;8643;48.824;11.422;2023-02-28T15:15:44;14.10;;;8.20;;
17052;SDS011;8643;48.824;11.422;2023-02-28T15:18:30;14.07;;;7.57;;
17052;SDS011;8643;48.824;11.422;2023-02-28T15:21:11;14.77;;;8.20;;
17052;SDS011;8643;48.824;11.422;2023-02-28T15:23:45;14.10;;;8.47;;
17052;SDS011;8643;48.824;11.422;2023-02-28T15:26:24;16.00;;;8.30;;
17052;SDS011;8643;48.824;11.422;2023-02-28T15:29:00;14.20;;;8.10;;
17052;SDS011;8643;48.824;11.422;2023-02-28T15:31:35;15.07;;;8.40;;
17052;SDS011;8643;48.824;11.422;2023-02-28T15:34:27;13.67;;;7.47;;
17052;SDS011;8643;48.824;11.422;2023-02-28T15:40:11;13.27;;;7.80;;
17052;SDS011;8643;48.824;11.422;2023-02-28T15:43:05;12.50;;;7.17;;
17052;SDS011;8643;48.824;11.422;2023-02-28T15:45:44;15.57;;;8.30;;
17052;SDS011;8643;48.824;11.422;2023-02-28T15:48:17;14.17;;;7.90;;
17052;SDS011;8643;48.824;11.422;2023-02-28T15:50:50;14.20;;;7.93;;
17052;SDS011;8643;48.824;11.422;2023-02-28T15:53:22;15.53;;;8.47;;
17052;SDS011;8643;48.824;11.422;2023-02-28T15:56:00;13.93;;;8.10;;
17052;SDS011;8643;48.824;11.422;2023-02-28T15:58:33;13.67;;;7.50;;
17052;SDS011;8643;48.824;11.422;2023-02-28T16:01:05;13.87;;;7.60;;
17052;SDS011;8643;48.824;11.422;2023-02-28T16:03:44;12.67;;;7.73;;